Terminal Aerodrome Forecast
Issued by NWS

Home | Current Version | Previous Version | Text Only | Print | Product List | Glossary On
Versions: 1 2 3 4 5 6 7 8 9 10 11 12 13 14 15 16 17 18 19
000
FTUS43 KDMX 221835 AAA
TAFMCW
TAF AMD
KMCW 221835Z 2219/2318 19007KT P6SM SCT025 OVC040
     FM222100 36009KT P6SM VCTS BKN035CB
      TEMPO 2221/2224 3SM -TSRA OVC025CB
     FM230100 35007KT P6SM VCSH OVC045
     FM230300 33006KT P6SM SCT080
     FM231400 31011G17KT P6SM SCT180=

USA.gov is the U.S. government's official web portal to all federal, state and local government web resources and services.